Time;durP1;ratioP1;P1;durP2;ratioP2;P2;SDS_P1;SDS_P2;PMS_P1;PMS_P2;Temp;Humidity;BMP_temperature;BMP_pressure;BME280_temperature;BME280_humidity;BME280_pressure;Samples;Min_cycle;Max_cycle;Signal;HPM_P1;HPM_P2
2023/04/11 00:01:21;;;;;;;17.65;15.07;;;;;;;8.43;53.08;99234.44;5065546;28;20033;-69
2023/04/11 00:03:48;;;;;;;18.50;16.10;;;;;;;8.37;53.37;99222.38;5065526;28;20045;-69
2023/04/11 00:06:14;;;;;;;20.02;16.23;;;;;;;7.02;53.37;98990.50;5065449;28;20037;-70
2023/04/11 00:08:43;;;;;;;18.15;15.02;;;;;;;8.11;53.35;99172.63;5065434;28;20041;-70
2023/04/11 00:11:11;;;;;;;15.45;13.77;;;;;;;8.28;53.51;99209.63;5065422;28;20320;-70
2023/04/11 00:13:38;;;;;;;19.30;15.73;;;;;;;8.27;53.57;99202.63;5065668;28;20053;-70
2023/04/11 00:16:07;;;;;;;16.02;14.32;;;;;;;8.15;53.47;99190.88;5065877;28;20051;-70
2023/04/11 00:18:35;;;;;;;16.58;14.77;;;;;;;8.11;53.75;99205.16;5065613;28;20060;-69
2023/04/11 00:21:03;;;;;;;15.20;13.60;;;;;;;8.06;53.75;99201.03;5065312;28;20041;-70
2023/04/11 00:23:30;;;;;;;16.25;14.52;;;;;;;8.02;53.79;99190.63;5065294;28;20040;-70
2023/04/11 00:25:57;;;;;;;15.48;13.88;;;;;;;8.00;53.77;99195.09;5065565;28;20188;-70
2023/04/11 00:28:25;;;;;;;17.00;14.95;;;;;;;7.98;53.82;99198.75;5065262;28;20048;-70
2023/04/11 00:30:51;;;;;;;19.08;15.45;;;;;;;7.94;53.89;99189.25;5065823;28;20047;-70
2023/04/11 00:33:18;;;;;;;17.50;14.30;;;;;;;7.90;54.03;99199.09;5065555;28;20045;-70
2023/04/11 00:35:45;;;;;;;16.05;14.27;;;;;;;7.89;54.00;99200.03;5065492;28;20311;-70
2023/04/11 00:38:11;;;;;;;15.95;13.60;;;;;;;7.86;54.16;99209.88;5065196;28;20044;-70
2023/04/11 00:40:38;;;;;;;14.95;13.25;;;;;;;7.85;54.09;99211.66;5065433;28;20041;-70
2023/04/11 00:43:05;;;;;;;18.25;14.98;;;;;;;7.83;54.10;99205.59;5065093;28;20067;-70
2023/04/11 00:45:33;;;;;;;15.63;13.68;;;;;;;7.83;54.28;99199.47;5065701;28;20098;-70
2023/04/11 00:48:00;;;;;;;17.92;13.90;;;;;;;7.81;54.20;99202.16;5069358;28;20184;-70
2023/04/11 00:50:27;;;;;;;15.88;14.18;;;;;;;7.71;54.03;99190.34;5069049;28;20049;-71
2023/04/11 00:52:56;;;;;;;15.43;13.80;;;;;;;7.78;54.31;99202.31;5069332;28;20045;-71
2023/04/11 00:55:23;;;;;;;19.08;15.40;;;;;;;7.77;54.27;99190.06;5068996;28;20106;-70
2023/04/11 00:57:53;;;;;;;17.25;14.80;;;;;;;7.71;54.88;99190.34;5069243;28;20059;-70
2023/04/11 01:00:20;;;;;;;16.42;14.63;;;;;;;7.67;54.52;99184.34;5069349;28;20037;-70
2023/04/11 01:02:48;;;;;;;19.10;14.02;;;;;;;7.62;54.72;99178.41;5069295;28;20051;-70
2023/04/11 01:05:16;;;;;;;16.73;14.60;;;;;;;5.91;54.63;98887.56;5069086;28;20360;-71
2023/04/11 01:07:45;;;;;;;16.08;14.35;;;;;;;7.65;54.66;99169.50;5068734;28;20047;-71
2023/04/11 01:10:13;;;;;;;17.42;14.55;;;;;;;7.60;54.76;99161.81;5068926;28;20083;-71
2023/04/11 01:12:42;;;;;;;14.82;13.25;;;;;;;6.30;54.87;98947.25;5068978;28;20110;-70
2023/04/11 01:15:09;;;;;;;15.75;14.00;;;;;;;7.59;54.90;99160.09;5068948;28;20037;-70
2023/04/11 01:17:36;;;;;;;19.48;15.45;;;;;;;7.55;54.86;99155.91;5068910;28;20244;-70
2023/04/11 01:20:06;;;;;;;15.98;14.27;;;;;;;7.49;55.17;99157.97;5069228;28;20059;-70
2023/04/11 01:22:35;;;;;;;15.68;13.63;;;;;;;7.48;54.96;99154.47;5068990;28;20060;-70
2023/04/11 01:25:03;;;;;;;16.50;14.45;;;;;;;7.46;55.08;99147.56;5068725;28;20041;-70
2023/04/11 01:27:30;;;;;;;15.50;13.80;;;;;;;7.38;55.11;99138.22;5068398;28;20049;-70
2023/04/11 01:29:57;;;;;;;16.27;13.00;;;;;;;7.00;55.20;99086.34;5068631;28;20090;-70
2023/04/11 01:32:23;;;;;;;17.73;14.27;;;;;;;7.12;55.15;99100.75;5068206;28;20055;-71
2023/04/11 01:34:53;;;;;;;17.83;14.68;;;;;;;7.25;55.42;99126.47;5068779;28;20057;-70
2023/04/11 01:37:20;;;;;;;17.48;14.50;;;;;;;7.22;55.36;99117.84;5068205;28;20108;-70
2023/04/11 01:39:47;;;;;;;17.38;15.50;;;;;;;7.21;55.38;99116.16;5068688;28;20170;-70
2023/04/11 01:42:15;;;;;;;18.98;14.52;;;;;;;7.21;55.48;99110.88;5068341;28;20055;-70
2023/04/11 01:44:42;;;;;;;15.63;13.52;;;;;;;7.20;55.27;99115.28;5068696;28;20045;-70
2023/04/11 01:47:09;;;;;;;18.15;15.13;;;;;;;7.19;55.35;99104.81;5068561;28;20045;-70
2023/04/11 01:49:36;;;;;;;15.95;14.18;;;;;;;7.14;55.39;99099.75;5068028;28;20047;-70
2023/04/11 01:52:03;;;;;;;17.27;14.75;;;;;;;7.13;55.52;99105.09;5068181;28;20045;-69
2023/04/11 01:54:30;;;;;;;17.48;14.55;;;;;;;7.11;55.51;99104.31;5068044;28;20052;-70
2023/04/11 01:56:56;;;;;;;16.60;14.38;;;;;;;7.07;55.59;99099.16;5068462;28;20048;-69
2023/04/11 01:59:24;;;;;;;16.08;14.35;;;;;;;7.07;55.64;99091.25;5066371;28;20075;-69
2023/04/11 02:01:51;;;;;;;15.70;14.05;;;;;;;6.84;55.62;99045.81;5068057;28;20040;-69
2023/04/11 02:04:18;;;;;;;17.45;15.35;;;;;;;7.02;55.71;99068.69;5067941;28;20099;-69
2023/04/11 02:06:44;;;;;;;17.67;14.65;;;;;;;6.97;55.81;99078.56;5067845;28;20059;-70
2023/04/11 02:09:11;;;;;;;16.80;14.07;;;;;;;6.97;55.98;99065.41;5067552;28;20308;-70
2023/04/11 02:11:38;;;;;;;16.33;14.40;;;;;;;6.98;55.75;99067.97;5067765;28;20045;-70
2023/04/11 02:14:05;;;;;;;18.08;14.93;;;;;;;6.92;56.01;99062.97;5067562;28;20061;-70
2023/04/11 02:16:33;;;;;;;16.02;14.32;;;;;;;6.88;56.16;99071.94;5067469;28;20051;-70
2023/04/11 02:19:02;;;;;;;17.10;14.48;;;;;;;6.88;56.01;99076.34;5067743;28;20045;-69
2023/04/11 02:21:29;;;;;;;16.85;14.25;;;;;;;6.90;55.98;99066.59;5067393;28;20052;-70
2023/04/11 02:23:55;;;;;;;16.83;14.45;;;;;;;6.91;55.97;99065.69;5067448;28;20289;-70
2023/04/11 02:26:22;;;;;;;18.13;14.40;;;;;;;6.89;56.02;99049.09;5067599;28;20281;-70
2023/04/11 02:28:48;;;;;;;16.90;14.07;;;;;;;6.72;56.05;99021.69;5067560;28;20107;-70
2023/04/11 02:31:15;;;;;;;17.63;14.95;;;;;;;6.84;56.17;99043.16;5067238;28;20100;-70
2023/04/11 02:33:43;;;;;;;17.35;14.25;;;;;;;6.82;56.24;99032.69;5067726;28;20041;-70
2023/04/11 02:36:11;;;;;;;18.95;15.27;;;;;;;6.79;56.24;99024.91;5067188;28;20190;-70
2023/04/11 02:38:37;;;;;;;17.60;14.80;;;;;;;6.78;56.26;99023.19;5067364;28;20051;-70
2023/04/11 02:41:06;;;;;;;17.17;15.35;;;;;;;6.57;56.29;98987.28;5066984;28;20044;-70
2023/04/11 02:43:33;;;;;;;16.75;13.55;;;;;;;6.72;56.46;99013.78;5066907;28;20064;-69
2023/04/11 02:46:00;;;;;;;16.15;14.10;;;;;;;6.71;56.16;99016.50;5067475;28;20106;-70
2023/04/11 02:48:27;;;;;;;17.27;13.40;;;;;;;6.70;56.40;99017.41;5067168;28;20040;-70
2023/04/11 02:50:55;;;;;;;18.70;13.77;;;;;;;6.68;56.53;99016.63;5066720;28;20040;-69
2023/04/11 02:53:21;;;;;;;16.08;13.70;;;;;;;6.64;56.57;99020.31;5066767;28;20056;-69
2023/04/11 02:55:48;;;;;;;16.60;14.40;;;;;;;5.51;56.55;98833.22;5066995;28;20099;-70
2023/04/11 02:58:16;;;;;;;17.08;13.82;;;;;;;6.61;56.67;99017.81;5067300;28;20041;-70
2023/04/11 03:00:43;;;;;;;16.08;14.18;;;;;;;6.63;56.60;99019.47;5066651;28;20052;-69
2023/04/11 03:03:10;;;;;;;16.20;13.82;;;;;;;6.61;56.77;99007.28;5066944;28;20224;-70
2023/04/11 03:05:37;;;;;;;16.60;14.00;;;;;;;6.60;56.78;99009.06;5066661;28;20104;-69
2023/04/11 03:08:07;;;;;;;15.15;12.80;;;;;;;6.56;56.87;99002.22;5067010;28;20036;-69
2023/04/11 03:10:34;;;;;;;17.27;14.13;;;;;;;6.56;56.72;98994.31;5066307;28;20079;-69
2023/04/11 03:13:01;;;;;;;15.90;14.25;;;;;;;6.52;56.87;98998.03;5066743;28;20036;-70
2023/04/11 03:15:27;;;;;;;16.67;14.10;;;;;;;6.50;56.99;98999.00;5066675;28;20041;-69
2023/04/11 03:17:54;;;;;;;16.38;14.40;;;;;;;6.52;56.90;99002.44;5066582;28;20308;-70
2023/04/11 03:20:21;;;;;;;16.83;13.55;;;;;;;6.52;56.95;99005.91;5067317;28;20068;-70
2023/04/11 03:22:48;;;;;;;15.68;13.38;;;;;;;6.31;57.02;98967.38;5066187;28;20111;-69
2023/04/11 03:25:16;;;;;;;19.48;15.20;;;;;;;6.52;57.08;98995.38;5066683;28;20052;-69
2023/04/11 03:27:43;;;;;;;15.77;13.85;;;;;;;6.51;57.11;98991.03;5066382;28;20052;-70
2023/04/11 03:30:10;;;;;;;18.75;15.38;;;;;;;6.52;57.17;98990.13;5066476;28;20174;-69
2023/04/11 03:32:37;;;;;;;17.10;14.82;;;;;;;6.51;57.27;98996.31;5066173;28;20037;-70
2023/04/11 03:35:04;;;;;;;17.25;13.88;;;;;;;6.29;57.48;98953.44;5065988;28;20037;-69
2023/04/11 03:37:31;;;;;;;17.63;14.18;;;;;;;6.52;57.34;98978.75;5066175;28;20080;-70
2023/04/11 03:39:57;;;;;;;18.52;15.13;;;;;;;6.54;57.47;98977.75;5066141;28;20094;-69
2023/04/11 03:42:26;;;;;;;16.65;14.40;;;;;;;6.33;57.54;98933.94;5065812;28;20056;-69
2023/04/11 03:44:52;;;;;;;16.13;14.15;;;;;;;6.55;57.52;98958.38;5066077;28;20048;-70
2023/04/11 03:47:19;;;;;;;16.60;13.70;;;;;;;6.56;57.55;98949.56;5065928;28;20037;-69
2023/04/11 03:49:46;;;;;;;17.52;14.98;;;;;;;6.56;57.59;98939.03;5066225;28;20044;-70
2023/04/11 03:52:13;;;;;;;18.45;14.75;;;;;;;6.55;57.79;98933.84;5065562;28;20040;-69
2023/04/11 03:54:40;;;;;;;16.35;13.88;;;;;;;6.56;57.74;98946.94;5065915;28;20041;-70
2023/04/11 03:57:07;;;;;;;17.98;14.07;;;;;;;6.58;57.95;98952.13;5065949;28;20051;-70
2023/04/11 03:59:35;;;;;;;19.90;15.38;;;;;;;6.55;58.07;98950.50;5065864;28;20212;-70
2023/04/11 04:02:02;;;;;;;18.52;13.85;;;;;;;6.58;58.12;98945.09;5065515;28;20036;-70
2023/04/11 04:04:31;;;;;;;22.02;16.92;;;;;;;6.61;58.06;98944.09;5065737;28;20045;-70
2023/04/11 04:06:57;;;;;;;16.40;14.45;;;;;;;6.63;57.97;98948.38;5065380;28;20041;-70
2023/04/11 04:09:24;;;;;;;19.40;14.90;;;;;;;5.73;57.79;98817.38;5065662;28;20045;-70
2023/04/11 04:11:51;;;;;;;19.10;15.65;;;;;;;6.65;58.02;98954.41;5065910;28;20192;-70
2023/04/11 04:14:18;;;;;;;20.33;16.05;;;;;;;6.64;57.99;98955.34;5065696;28;20063;-69
2023/04/11 04:16:46;;;;;;;18.85;14.52;;;;;;;6.66;58.05;98955.28;5065659;28;20040;-70
2023/04/11 04:19:12;;;;;;;19.05;14.25;;;;;;;6.63;58.10;98943.09;5065886;28;20045;-70
2023/04/11 04:21:39;;;;;;;16.83;14.60;;;;;;;6.64;58.05;98941.31;5064537;28;20091;-70
2023/04/11 04:24:06;;;;;;;18.52;15.63;;;;;;;6.61;58.06;98947.59;5065584;28;20047;-69
2023/04/11 04:26:33;;;;;;;16.85;14.38;;;;;;;6.43;57.97;98919.47;5065293;28;20091;-70
2023/04/11 04:29:03;;;;;;;17.55;15.63;;;;;;;6.60;58.07;98959.03;5065304;28;20053;-70
2023/04/11 04:31:32;;;;;;;18.48;14.68;;;;;;;6.28;58.03;98899.09;5065277;28;20049;-70
2023/04/11 04:34:02;;;;;;;16.13;14.38;;;;;;;6.60;58.16;98961.66;5065186;28;20068;-70
2023/04/11 04:36:29;;;;;;;19.02;14.80;;;;;;;6.58;58.16;98963.53;5065557;28;20049;-70
2023/04/11 04:39:00;;;;;;;18.05;15.38;;;;;;;6.59;58.14;98965.22;5065095;28;20040;-70
2023/04/11 04:41:35;;;;;;;16.25;13.70;;;;;;;6.59;58.20;98957.34;5065622;28;20037;-70
2023/04/11 04:44:03;;;;;;;20.58;16.08;;;;;;;6.60;58.24;98947.66;5065031;28;20048;-69
2023/04/11 04:46:35;;;;;;;17.67;15.00;;;;;;;6.61;58.08;98942.31;5065620;28;20041;-69
2023/04/11 04:49:04;;;;;;;18.27;14.05;;;;;;;6.61;58.30;98938.81;5065215;28;20045;-70
2023/04/11 04:51:31;;;;;;;18.70;15.38;;;;;;;6.60;58.29;98927.44;5065546;28;20242;-70
2023/04/11 04:53:58;;;;;;;20.38;17.98;;;;;;;6.61;58.30;98926.50;5065484;28;20040;-70
2023/04/11 04:56:25;;;;;;;19.58;16.48;;;;;;;6.62;58.33;98935.28;5065155;28;20052;-70
2023/04/11 04:58:51;;;;;;;20.08;16.05;;;;;;;6.60;58.44;98930.06;5065262;28;20052;-70
2023/04/11 05:01:19;;;;;;;18.02;15.27;;;;;;;6.61;58.21;98931.78;5065272;28;20037;-70
2023/04/11 05:03:57;;;;;;;18.45;16.05;;;;;;;6.42;58.38;98905.44;5064778;28;20242;-70
2023/04/11 05:06:26;;;;;;;18.92;16.95;;;;;;;6.59;58.35;98923.09;5064999;28;20049;-69
2023/04/11 05:08:55;;;;;;;20.98;17.08;;;;;;;6.56;58.30;98917.97;5065015;28;20068;-70
2023/04/11 05:11:21;;;;;;;18.83;15.32;;;;;;;6.37;58.25;98896.03;5064643;28;20104;-70
2023/04/11 05:13:48;;;;;;;19.80;14.63;;;;;;;6.57;58.19;98932.84;5065199;28;20051;-70
2023/04/11 05:16:15;;;;;;;18.60;15.55;;;;;;;6.40;58.23;98894.13;5064814;28;20103;-69
2023/04/11 05:18:42;;;;;;;20.42;17.20;;;;;;;6.59;58.22;98922.25;5065232;28;20036;-69
2023/04/11 05:21:08;;;;;;;21.38;15.73;;;;;;;6.59;58.32;98914.34;5064922;28;20044;-69
2023/04/11 05:23:37;;;;;;;20.55;16.38;;;;;;;6.18;58.12;98845.16;5064599;28;20040;-70
2023/04/11 05:26:03;;;;;;;21.63;17.88;;;;;;;6.61;58.20;98912.50;5064436;28;20041;-70
2023/04/11 05:28:31;;;;;;;20.55;16.63;;;;;;;6.61;58.09;98905.44;5064909;28;20082;-70
2023/04/11 05:30:57;;;;;;;22.45;18.48;;;;;;;6.61;58.29;98910.72;5065112;28;20233;-71
2023/04/11 05:33:24;;;;;;;20.67;17.25;;;;;;;6.62;58.29;98903.69;5066603;28;20056;-70
2023/04/11 05:35:51;;;;;;;20.40;17.67;;;;;;;6.63;58.29;98903.59;5068270;28;20204;-70
2023/04/11 05:38:18;;;;;;;22.00;18.38;;;;;;;5.64;58.23;98737.13;5067846;28;20051;-69
2023/04/11 05:40:47;;;;;;;22.15;17.83;;;;;;;6.66;58.45;98907.88;5067835;28;20196;-70
2023/04/11 05:43:14;;;;;;;23.35;17.90;;;;;;;6.49;58.45;98890.22;5067656;28;20059;-70
2023/04/11 05:45:40;;;;;;;22.75;17.42;;;;;;;6.52;58.56;98884.81;5068245;28;20083;-70
2023/04/11 05:48:08;;;;;;;20.25;17.38;;;;;;;6.70;58.48;98915.56;5067883;28;20086;-70
2023/04/11 05:50:35;;;;;;;21.98;18.75;;;;;;;6.76;58.56;98911.78;5067780;28;20044;-69
2023/04/11 05:53:02;;;;;;;24.27;19.67;;;;;;;6.80;58.74;98910.75;5067455;28;20108;-70
2023/04/11 05:55:29;;;;;;;21.75;18.85;;;;;;;6.82;58.70;98906.25;5067522;28;20044;-70
2023/04/11 05:57:57;;;;;;;20.88;17.98;;;;;;;6.86;58.89;98904.34;5067510;28;20041;-70
2023/04/11 06:00:25;;;;;;;22.45;18.20;;;;;;;6.66;59.10;98855.22;5067609;28;20224;-70
2023/04/11 06:02:51;;;;;;;22.38;17.90;;;;;;;6.87;59.00;98880.56;5067835;28;20032;-70
2023/04/11 06:05:20;;;;;;;25.13;18.95;;;;;;;6.91;58.81;98882.13;5067628;28;20087;-70
2023/04/11 06:07:47;;;;;;;26.70;18.10;;;;;;;6.76;58.78;98845.94;5067694;28;20116;-70
2023/04/11 06:10:13;;;;;;;25.17;19.77;;;;;;;6.95;58.81;98864.38;5067714;28;20347;-70
2023/04/11 06:12:40;;;;;;;23.88;18.55;;;;;;;6.99;58.76;98869.44;5067581;28;20045;-70
2023/04/11 06:15:10;;;;;;;20.17;16.45;;;;;;;7.04;58.80;98882.38;5067551;28;20116;-70
2023/04/11 06:17:37;;;;;;;22.60;17.88;;;;;;;7.07;58.52;98875.19;5067482;28;20044;-70
2023/04/11 06:20:05;;;;;;;20.98;16.73;;;;;;;7.11;58.42;98889.06;5067467;28;20045;-70
2023/04/11 06:22:31;;;;;;;24.23;18.35;;;;;;;7.12;58.50;98898.69;5067256;28;20092;-69
2023/04/11 06:24:58;;;;;;;23.42;18.95;;;;;;;7.13;58.53;98881.94;5067472;28;20040;-70
2023/04/11 06:27:25;;;;;;;21.55;17.75;;;;;;;7.14;58.73;98883.66;5067087;28;20091;-70
2023/04/11 06:29:51;;;;;;;23.95;19.52;;;;;;;7.17;58.74;98886.13;5067037;28;20108;-70
2023/04/11 06:32:20;;;;;;;25.77;21.25;;;;;;;7.23;58.64;98877.94;5067082;28;20044;-70
2023/04/11 06:34:46;;;;;;;27.23;21.50;;;;;;;7.29;58.94;98871.50;5067007;28;20044;-70
2023/04/11 06:37:13;;;;;;;27.80;22.92;;;;;;;7.12;59.13;98838.06;5066804;28;20208;-70
2023/04/11 06:39:40;;;;;;;26.63;22.35;;;;;;;7.33;59.25;98863.41;5066782;28;20255;-70
2023/04/11 06:42:06;;;;;;;24.90;19.30;;;;;;;7.37;59.02;98861.47;5067214;28;20044;-70
2023/04/11 06:44:33;;;;;;;21.60;18.92;;;;;;;3.84;58.51;98256.97;5066183;28;20272;-70
2023/04/11 06:47:00;;;;;;;22.58;18.60;;;;;;;7.44;58.70;98848.81;5066670;28;20051;-70
2023/04/11 06:49:28;;;;;;;21.27;18.73;;;;;;;7.56;58.73;98848.19;5066705;28;20041;-70
2023/04/11 06:51:54;;;;;;;22.83;19.00;;;;;;;7.71;58.25;98842.16;5066640;28;20362;-70
2023/04/11 06:54:21;;;;;;;27.08;19.45;;;;;;;6.98;58.17;98719.34;5066856;28;20201;-69
2023/04/11 06:56:49;;;;;;;26.42;21.35;;;;;;;7.83;58.11;98838.88;5066638;28;20232;-70
2023/04/11 06:59:18;;;;;;;23.75;20.17;;;;;;;7.95;57.84;98835.59;5066362;28;20052;-70
2023/04/11 07:01:45;;;;;;;26.77;19.88;;;;;;;8.08;57.73;98834.94;5066932;28;20063;-70
2023/04/11 07:04:12;;;;;;;22.95;19.38;;;;;;;8.17;57.58;98832.66;5066641;28;20041;-70
2023/04/11 07:06:40;;;;;;;25.92;20.33;;;;;;;8.22;57.39;98821.84;5066307;28;20182;-70
2023/04/11 07:09:07;;;;;;;21.85;18.40;;;;;;;8.30;57.04;98809.09;5066468;28;20045;-70
2023/04/11 07:11:34;;;;;;;22.05;19.15;;;;;;;8.39;57.04;98820.94;5066463;28;20182;-70
2023/04/11 07:14:01;;;;;;;23.48;17.63;;;;;;;8.46;56.77;98830.22;5066343;28;20293;-70
2023/04/11 07:16:28;;;;;;;20.60;17.90;;;;;;;8.52;56.66;98825.47;5066347;28;20185;-70
2023/04/11 07:18:55;;;;;;;20.52;17.52;;;;;;;8.56;56.41;98820.88;5066538;28;20040;-70
2023/04/11 07:21:22;;;;;;;22.65;17.42;;;;;;;8.62;56.21;98817.88;5066349;28;20321;-70
2023/04/11 07:23:51;;;;;;;33.35;17.45;;;;;;;8.73;56.06;98820.78;5066015;28;20036;-70
2023/04/11 07:26:18;;;;;;;24.52;17.77;;;;;;;8.89;55.65;98823.41;5066144;28;20068;-70
2023/04/11 07:28:46;;;;;;;21.80;18.80;;;;;;;8.99;55.52;98814.88;5065822;28;20053;-70
2023/04/11 07:31:13;;;;;;;22.42;19.27;;;;;;;9.05;55.37;98821.59;5066199;28;20040;-70
2023/04/11 07:33:42;;;;;;;22.48;18.67;;;;;;;9.05;55.23;98816.31;5066096;28;20201;-70
2023/04/11 07:36:11;;;;;;;24.05;18.23;;;;;;;9.02;55.06;98815.63;5065756;28;20045;-70
2023/04/11 07:38:38;;;;;;;21.88;19.38;;;;;;;8.80;55.17;98789.56;5066315;28;20040;-70
2023/04/11 07:41:06;;;;;;;22.33;16.85;;;;;;;9.01;55.16;98822.72;5065798;28;20056;-70
2023/04/11 07:43:33;;;;;;;20.33;17.35;;;;;;;9.01;54.98;98820.06;5065430;28;20049;-70
2023/04/11 07:46:00;;;;;;;21.77;17.90;;;;;;;9.04;54.95;98813.75;5065649;28;20301;-71
2023/04/11 07:48:27;;;;;;;20.13;17.23;;;;;;;9.04;55.03;98809.31;5065618;28;20037;-70
2023/04/11 07:50:54;;;;;;;20.23;17.15;;;;;;;9.03;54.69;98812.91;5066092;28;20193;-70
2023/04/11 07:53:22;;;;;;;20.02;17.75;;;;;;;8.18;54.85;98673.34;5065905;28;20049;-70
2023/04/11 07:55:49;;;;;;;23.40;18.50;;;;;;;7.61;54.59;98571.91;5065428;28;20051;-70
2023/04/11 07:58:17;;;;;;;21.40;16.80;;;;;;;8.85;54.53;98780.44;5065487;28;20045;-70
2023/04/11 08:00:43;;;;;;;20.42;17.60;;;;;;;9.03;54.51;98812.03;5065462;28;20192;-70
2023/04/11 08:03:11;;;;;;;19.13;15.85;;;;;;;9.03;54.42;98810.25;5065425;28;20040;-71
2023/04/11 08:05:39;;;;;;;17.33;15.32;;;;;;;9.05;54.28;98816.31;5065490;28;20040;-70
2023/04/11 08:08:06;;;;;;;22.08;18.05;;;;;;;9.07;54.16;98809.13;5065117;28;20052;-70
2023/04/11 08:10:33;;;;;;;20.67;17.10;;;;;;;9.11;54.16;98813.31;5066355;28;20052;-70
2023/04/11 08:12:59;;;;;;;19.90;16.40;;;;;;;9.18;54.11;98811.16;5065400;28;20037;-70
2023/04/11 08:15:27;;;;;;;17.60;15.63;;;;;;;9.21;53.94;98808.38;5065617;28;20045;-70
2023/04/11 08:17:55;;;;;;;17.92;15.48;;;;;;;8.08;53.80;98615.88;5065502;28;20320;-70
2023/04/11 08:20:23;;;;;;;19.75;15.80;;;;;;;9.24;53.73;98801.13;5065259;28;20048;-70
2023/04/11 08:22:50;;;;;;;20.13;16.38;;;;;;;9.32;53.62;98801.53;5065720;28;20068;-70
2023/04/11 08:25:21;;;;;;;18.55;16.58;;;;;;;9.36;53.52;98799.53;5065172;28;20040;-71
2023/04/11 08:27:48;;;;;;;18.58;15.45;;;;;;;9.40;53.48;98801.09;5065179;28;20208;-70
2023/04/11 08:30:16;;;;;;;19.27;15.93;;;;;;;9.43;53.50;98800.06;5065147;28;20189;-70
2023/04/11 08:32:44;;;;;;;18.33;16.27;;;;;;;9.45;53.35;98803.47;5064985;28;20044;-70
2023/04/11 08:35:11;;;;;;;18.77;16.08;;;;;;;9.18;53.36;98753.00;5065466;28;20098;-71
2023/04/11 08:37:38;;;;;;;21.73;17.40;;;;;;;9.34;53.33;98774.97;5065017;28;20041;-70
2023/04/11 08:40:06;;;;;;;20.75;17.50;;;;;;;9.48;53.38;98787.41;5064892;28;20041;-71
2023/04/11 08:42:33;;;;;;;23.30;16.85;;;;;;;9.51;53.33;98803.09;5064899;28;20067;-70
2023/04/11 08:45:01;;;;;;;19.20;15.02;;;;;;;9.56;53.21;98790.47;5065517;28;20232;-70
2023/04/11 08:47:28;;;;;;;21.05;17.55;;;;;;;8.00;53.06;98516.91;5065292;28;20253;-70
2023/04/11 08:49:56;;;;;;;19.67;16.90;;;;;;;8.78;53.15;98641.72;5065245;28;20037;-70
2023/04/11 08:52:24;;;;;;;19.08;15.95;;;;;;;9.72;53.07;98785.94;5065407;28;20045;-70
2023/04/11 08:54:53;;;;;;;20.58;16.02;;;;;;;9.78;52.96;98790.00;5065430;28;20108;-70
2023/04/11 08:57:26;;;;;;;20.00;17.83;;;;;;;9.27;52.69;98708.38;5065175;28;20098;-70
2023/04/11 08:59:54;;;;;;;19.45;16.40;;;;;;;9.92;52.88;98779.44;5065213;28;20051;-70
2023/04/11 09:02:21;;;;;;;18.02;15.40;;;;;;;9.97;52.65;98771.22;5064921;28;20036;-69
2023/04/11 09:04:48;;;;;;;19.05;15.75;;;;;;;10.03;52.71;98769.03;5065236;28;20108;-70
2023/04/11 09:07:17;;;;;;;18.38;14.00;;;;;;;10.09;52.66;98755.41;5065371;28;20037;-70
2023/04/11 09:09:45;;;;;;;15.63;10.50;;;;;;;10.22;52.92;98774.03;5069095;28;20064;-71
2023/04/11 09:12:12;;;;;;;11.15;9.13;;;;;;;10.34;52.94;98756.50;5068975;28;20222;-70
2023/04/11 09:14:39;;;;;;;16.38;9.95;;;;;;;8.99;53.00;98508.28;5068871;28;20037;-71
2023/04/11 09:17:12;;;;;;;5.60;4.80;;;;;;;10.60;53.30;98740.63;5068895;28;20033;-70
2023/04/11 09:19:40;;;;;;;5.28;4.00;;;;;;;10.75;53.99;98740.59;5068619;28;20124;-70
2023/04/11 09:22:08;;;;;;;4.25;3.17;;;;;;;10.70;53.52;98709.09;5068668;28;20187;-70
2023/04/11 09:24:36;;;;;;;5.32;3.97;;;;;;;10.99;53.92;98740.81;5068656;28;20059;-70
2023/04/11 09:27:11;;;;;;;6.60;4.45;;;;;;;11.05;54.40;98735.94;5068194;28;20053;-70
2023/04/11 09:29:40;;;;;;;4.07;3.33;;;;;;;11.14;54.49;98740.63;5068427;28;20033;-70
2023/04/11 09:32:07;;;;;;;4.47;3.40;;;;;;;11.19;54.62;98727.06;5068603;28;20048;-71
2023/04/11 09:34:37;;;;;;;3.92;2.75;;;;;;;11.24;55.01;98733.75;5068164;28;20029;-70
2023/04/11 09:37:04;;;;;;;4.38;2.55;;;;;;;11.28;54.94;98721.13;5068640;28;20036;-70
2023/04/11 09:39:31;;;;;;;3.60;2.80;;;;;;;10.91;55.50;98657.31;5068058;28;20041;-70
2023/04/11 09:41:59;;;;;;;3.88;2.97;;;;;;;11.33;56.29;98720.81;5068150;28;20053;-71
2023/04/11 09:44:37;;;;;;;5.38;2.90;;;;;;;11.11;59.12;98682.50;5067995;28;20120;-72
2023/04/11 09:47:04;;;;;;;9.13;2.85;;;;;;;11.31;57.02;98728.88;5067926;28;20071;-70
2023/04/11 09:49:33;;;;;;;4.72;3.55;;;;;;;11.29;57.87;98728.13;5068124;28;20049;-71
2023/04/11 09:52:00;;;;;;;5.43;4.13;;;;;;;11.30;58.13;98721.03;5067636;28;20037;-70
2023/04/11 09:54:28;;;;;;;5.72;3.83;;;;;;;11.29;58.69;98719.31;5067860;28;20045;-70
2023/04/11 09:56:56;;;;;;;4.05;3.50;;;;;;;11.28;59.00;98729.09;5067856;28;20045;-70
2023/04/11 09:59:26;;;;;;;6.00;3.60;;;;;;;11.27;60.84;98719.44;5067885;28;20056;-70
2023/04/11 10:01:53;;;;;;;6.38;3.92;;;;;;;11.26;60.43;98716.88;5067635;28;20051;-70
2023/04/11 10:04:21;;;;;;;5.15;3.25;;;;;;;11.26;60.67;98727.50;5068102;28;20041;-71
2023/04/11 10:07:01;;;;;;;5.72;3.47;;;;;;;10.02;61.75;98513.19;5067923;28;20041;-70
2023/04/11 10:09:29;;;;;;;4.45;3.10;;;;;;;11.26;60.37;98719.53;5067868;28;20270;-71
2023/04/11 10:11:56;;;;;;;4.90;3.10;;;;;;;11.24;60.21;98714.34;5067546;28;20352;-71
2023/04/11 10:14:48;;;;;;;6.68;3.40;;;;;;;11.24;63.07;98714.34;5067707;28;20045;-71
2023/04/11 10:17:16;;;;;;;4.57;3.13;;;;;;;11.23;61.00;98718.78;5052957;28;20225;-71
2023/04/11 10:19:44;;;;;;;3.85;2.88;;;;;;;11.24;60.90;98706.38;5066066;28;20051;-71
2023/04/11 10:22:31;;;;;;;4.68;3.30;;;;;;;11.23;61.55;98692.25;5067524;28;20087;-70
2023/04/11 10:25:17;;;;;;;4.15;3.22;;;;;;;11.22;63.65;98685.25;5067103;28;20257;-70
2023/04/11 10:27:47;;;;;;;5.78;3.72;;;;;;;10.99;62.77;98645.34;5067310;28;20060;-71
2023/04/11 10:30:15;;;;;;;4.60;3.15;;;;;;;11.24;62.13;98693.97;5067248;28;20036;-70
2023/04/11 10:33:12;;;;;;;4.40;3.35;;;;;;;11.28;65.51;98688.44;5067517;28;20045;-70
2023/04/11 10:35:56;;;;;;;5.35;4.20;;;;;;;11.28;66.23;98696.41;5067298;28;20052;-71
2023/04/11 10:38:46;;;;;;;6.45;3.55;;;;;;;11.31;65.08;98710.31;5067286;28;20285;-70
2023/04/11 10:41:30;;;;;;;5.00;3.47;;;;;;;11.33;65.41;98718.16;5068126;28;20041;-70
2023/04/11 10:44:14;;;;;;;4.10;3.40;;;;;;;11.18;66.37;98680.28;5066863;28;20299;-70
2023/04/11 10:46:50;;;;;;;5.28;3.75;;;;;;;11.33;65.19;98719.00;5067464;28;20041;-70
2023/04/11 10:49:34;;;;;;;4.45;3.88;;;;;;;11.20;66.40;98686.31;5066849;28;20308;-71
2023/04/11 10:52:18;;;;;;;4.13;2.83;;;;;;;11.40;65.99;98719.44;5067151;28;20171;-70
2023/04/11 10:54:45;;;;;;;3.65;2.92;;;;;;;11.21;63.62;98683.56;5066920;28;20040;-71
2023/04/11 10:57:12;;;;;;;6.55;3.40;;;;;;;11.42;63.98;98704.28;5066990;28;20278;-70
2023/04/11 10:59:59;;;;;;;3.83;3.05;;;;;;;11.28;67.40;98699.06;5066957;28;20192;-71
2023/04/11 11:02:39;;;;;;;4.95;3.22;;;;;;;11.45;66.07;98702.25;5066444;28;20048;-70
2023/04/11 11:05:24;;;;;;;4.25;3.30;;;;;;;11.48;65.83;98707.34;5066744;28;20089;-71
2023/04/11 11:07:53;;;;;;;4.25;3.00;;;;;;;11.47;64.00;98699.50;5066502;28;20041;-71
2023/04/11 11:10:36;;;;;;;4.75;3.47;;;;;;;11.49;65.53;98686.97;5066470;28;20051;-70
2023/04/11 11:13:03;;;;;;;4.18;2.75;;;;;;;11.29;63.23;98664.47;5066638;28;20048;-71
2023/04/11 11:15:35;;;;;;;4.30;2.70;;;;;;;11.49;63.37;98690.47;5066488;28;20045;-70
2023/04/11 11:18:04;;;;;;;4.93;3.65;;;;;;;11.51;63.72;98690.38;5066303;28;20041;-70
2023/04/11 11:20:30;;;;;;;5.38;3.20;;;;;;;11.50;63.55;98696.63;5066235;28;20053;-71
2023/04/11 11:23:01;;;;;;;3.97;3.40;;;;;;;11.52;63.60;98692.91;5066347;28;20293;-71
2023/04/11 11:25:28;;;;;;;5.82;3.70;;;;;;;11.53;63.66;98693.75;5066430;28;20041;-71
2023/04/11 11:27:59;;;;;;;6.10;4.28;;;;;;;11.55;64.41;98705.13;5066275;28;20305;-70
2023/04/11 11:30:26;;;;;;;6.47;4.28;;;;;;;11.37;63.83;98677.22;5065326;28;20064;-71
2023/04/11 11:32:53;;;;;;;6.72;4.18;;;;;;;10.97;64.22;98618.09;5065996;28;20033;-71